sensor_id;sensor_type;location;lat;lon;timestamp;pressure;altitude;pressure_sealevel;temperature;humidity
70544;BME280;58097;48.364;-1.224;2024-01-11T00:01:13;100637.16;;;-2.11;97.58
70544;BME280;58097;48.364;-1.224;2024-01-11T00:03:39;100635.53;;;-2.15;97.49
70544;BME280;58097;48.364;-1.224;2024-01-11T00:06:04;100639.19;;;-2.16;97.27
70544;BME280;58097;48.364;-1.224;2024-01-11T00:08:30;100636.47;;;-2.16;97.32
70544;BME280;58097;48.364;-1.224;2024-01-11T00:10:55;100636.47;;;-2.16;96.93
70544;BME280;58097;48.364;-1.224;2024-01-11T00:13:20;100635.97;;;-2.26;96.86
70544;BME280;58097;48.364;-1.224;2024-01-11T00:15:46;100635.97;;;-2.26;97.42
70544;BME280;58097;48.364;-1.224;2024-01-11T00:18:11;100643.56;;;-2.36;98.01
70544;BME280;58097;48.364;-1.224;2024-01-11T00:20:37;100646.47;;;-2.40;98.10
70544;BME280;58097;48.364;-1.224;2024-01-11T00:23:02;100642.13;;;-2.44;98.26
70544;BME280;58097;48.364;-1.224;2024-01-11T00:25:28;100644.34;;;-2.54;98.71
70544;BME280;58097;48.364;-1.224;2024-01-11T00:27:53;100648.03;;;-2.57;99.07
70544;BME280;58097;48.364;-1.224;2024-01-11T00:30:18;100642.56;;;-2.55;98.75
70544;BME280;58097;48.364;-1.224;2024-01-11T00:32:44;100650.75;;;-2.57;98.95
70544;BME280;58097;48.364;-1.224;2024-01-11T00:35:09;100652.31;;;-2.51;98.20
70544;BME280;58097;48.364;-1.224;2024-01-11T00:37:34;100649.56;;;-2.50;97.93
70544;BME280;58097;48.364;-1.224;2024-01-11T00:40:00;100653.47;;;-2.57;98.31
70544;BME280;58097;48.364;-1.224;2024-01-11T00:42:25;100658.00;;;-2.57;98.48
70544;BME280;58097;48.364;-1.224;2024-01-11T00:44:50;100662.41;;;-2.55;98.15
70544;BME280;58097;48.364;-1.224;2024-01-11T00:47:16;100662.28;;;-2.52;97.95
70544;BME280;58097;48.364;-1.224;2024-01-11T00:49:42;100659.75;;;-2.56;98.12
70544;BME280;58097;48.364;-1.224;2024-01-11T00:52:08;100665.38;;;-2.62;98.50
70544;BME280;58097;48.364;-1.224;2024-01-11T00:54:35;100664.50;;;-2.63;98.38
70544;BME280;58097;48.364;-1.224;2024-01-11T00:57:00;100665.69;;;-2.70;98.48
70544;BME280;58097;48.364;-1.224;2024-01-11T00:59:25;100663.81;;;-2.68;98.41
70544;BME280;58097;48.364;-1.224;2024-01-11T01:01:51;100661.09;;;-2.68;98.51
70544;BME280;58097;48.364;-1.224;2024-01-11T01:04:16;100657.56;;;-2.70;98.40
70544;BME280;58097;48.364;-1.224;2024-01-11T01:06:42;100662.91;;;-2.68;97.94
70544;BME280;58097;48.364;-1.224;2024-01-11T01:09:08;100661.22;;;-2.71;98.02
70544;BME280;58097;48.364;-1.224;2024-01-11T01:11:33;100670.16;;;-2.69;97.57
70544;BME280;58097;48.364;-1.224;2024-01-11T01:13:58;100670.22;;;-2.70;97.72
70544;BME280;58097;48.364;-1.224;2024-01-11T01:16:24;100671.28;;;-2.74;97.51
70544;BME280;58097;48.364;-1.224;2024-01-11T01:18:49;100675.09;;;-2.80;97.68
70544;BME280;58097;48.364;-1.224;2024-01-11T01:21:14;100684.94;;;-2.77;97.34
70544;BME280;58097;48.364;-1.224;2024-01-11T01:23:40;100677.94;;;-2.83;97.53
70544;BME280;58097;48.364;-1.224;2024-01-11T01:26:06;100677.06;;;-2.84;97.29
70544;BME280;58097;48.364;-1.224;2024-01-11T01:28:31;100672.66;;;-2.86;97.25
70544;BME280;58097;48.364;-1.224;2024-01-11T01:30:57;100677.19;;;-2.87;97.12
70544;BME280;58097;48.364;-1.224;2024-01-11T01:33:22;100675.50;;;-2.91;97.25
70544;BME280;58097;48.364;-1.224;2024-01-11T01:35:48;100672.84;;;-2.92;97.28
70544;BME280;58097;48.364;-1.224;2024-01-11T01:38:13;100678.56;;;-3.00;97.57
70544;BME280;58097;48.364;-1.224;2024-01-11T01:40:38;100678.44;;;-2.97;97.43
70544;BME280;58097;48.364;-1.224;2024-01-11T01:43:07;100674.84;;;-2.97;97.02
70544;BME280;58097;48.364;-1.224;2024-01-11T01:45:34;100678.69;;;-3.03;97.15
70544;BME280;58097;48.364;-1.224;2024-01-11T01:47:59;100678.56;;;-3.00;97.21
70544;BME280;58097;48.364;-1.224;2024-01-11T01:50:25;100682.31;;;-3.04;97.37
70544;BME280;58097;48.364;-1.224;2024-01-11T01:52:51;100685.97;;;-3.05;97.16
70544;BME280;58097;48.364;-1.224;2024-01-11T01:55:17;100681.44;;;-3.04;97.17
70544;BME280;58097;48.364;-1.224;2024-01-11T01:57:45;100691.19;;;-3.00;97.02
70544;BME280;58097;48.364;-1.224;2024-01-11T02:00:12;100695.91;;;-3.05;97.09
70544;BME280;58097;48.364;-1.224;2024-01-11T02:02:40;100699.47;;;-3.05;97.37
70544;BME280;58097;48.364;-1.224;2024-01-11T02:05:08;100692.06;;;-3.00;96.89
70544;BME280;58097;48.364;-1.224;2024-01-11T02:07:33;100695.59;;;-2.98;96.62
70544;BME280;58097;48.364;-1.224;2024-01-11T02:09:59;100708.38;;;-3.01;96.40
70544;BME280;58097;48.364;-1.224;2024-01-11T02:12:25;100707.06;;;-2.91;96.08
70544;BME280;58097;48.364;-1.224;2024-01-11T02:14:53;100707.94;;;-2.91;95.70
70544;BME280;58097;48.364;-1.224;2024-01-11T02:17:18;100717.00;;;-2.92;95.94
70544;BME280;58097;48.364;-1.224;2024-01-11T02:19:44;100714.34;;;-2.93;95.88
70544;BME280;58097;48.364;-1.224;2024-01-11T02:22:15;100716.34;;;-2.98;95.94
70544;BME280;58097;48.364;-1.224;2024-01-11T02:24:44;100722.66;;;-2.98;96.16
70544;BME280;58097;48.364;-1.224;2024-01-11T02:27:09;100720.88;;;-2.99;95.75
70544;BME280;58097;48.364;-1.224;2024-01-11T02:29:36;100714.53;;;-2.98;95.84
70544;BME280;58097;48.364;-1.224;2024-01-11T02:32:02;100713.53;;;-2.95;95.82
70544;BME280;58097;48.364;-1.224;2024-01-11T02:34:28;100715.41;;;-2.97;96.03
70544;BME280;58097;48.364;-1.224;2024-01-11T02:36:54;100722.72;;;-2.99;96.43
70544;BME280;58097;48.364;-1.224;2024-01-11T02:39:21;100717.31;;;-2.99;96.33
70544;BME280;58097;48.364;-1.224;2024-01-11T02:41:48;100731.53;;;-2.94;96.12
70544;BME280;58097;48.364;-1.224;2024-01-11T02:44:15;100735.06;;;-2.92;95.96
70544;BME280;58097;48.364;-1.224;2024-01-11T02:46:40;100736.75;;;-2.90;95.63
70544;BME280;58097;48.364;-1.224;2024-01-11T02:49:05;100745.06;;;-2.94;95.86
70544;BME280;58097;48.364;-1.224;2024-01-11T02:51:31;100742.09;;;-2.87;95.29
70544;BME280;58097;48.364;-1.224;2024-01-11T02:53:56;100748.84;;;-2.75;94.89
70544;BME280;58097;48.364;-1.224;2024-01-11T02:56:21;100756.09;;;-2.75;94.55
70544;BME280;58097;48.364;-1.224;2024-01-11T02:58:47;100751.16;;;-2.88;94.86
70544;BME280;58097;48.364;-1.224;2024-01-11T03:01:12;100750.25;;;-2.88;95.02
70544;BME280;58097;48.364;-1.224;2024-01-11T03:03:37;100753.22;;;-2.96;95.11
70544;BME280;58097;48.364;-1.224;2024-01-11T03:06:03;100747.81;;;-2.96;95.09
70544;BME280;58097;48.364;-1.224;2024-01-11T03:08:29;100747.81;;;-2.96;94.87
70544;BME280;58097;48.364;-1.224;2024-01-11T03:10:54;100756.22;;;-3.03;95.14
70544;BME280;58097;48.364;-1.224;2024-01-11T03:13:20;100748.03;;;-3.02;95.20
70544;BME280;58097;48.364;-1.224;2024-01-11T03:15:45;100760.63;;;-3.01;94.80
70544;BME280;58097;48.364;-1.224;2024-01-11T03:18:11;100755.34;;;-3.04;94.79
70544;BME280;58097;48.364;-1.224;2024-01-11T03:20:36;100753.44;;;-3.02;94.70
70544;BME280;58097;48.364;-1.224;2024-01-11T03:23:01;100758.16;;;-3.07;94.85
70544;BME280;58097;48.364;-1.224;2024-01-11T03:25:29;100762.69;;;-3.07;94.86
70544;BME280;58097;48.364;-1.224;2024-01-11T03:27:54;100754.63;;;-3.09;94.91
70544;BME280;58097;48.364;-1.224;2024-01-11T03:30:19;100767.19;;;-3.08;94.96
70544;BME280;58097;48.364;-1.224;2024-01-11T03:32:45;100776.97;;;-3.04;94.60
70544;BME280;58097;48.364;-1.224;2024-01-11T03:35:10;100775.44;;;-3.11;94.80
70544;BME280;58097;48.364;-1.224;2024-01-11T03:37:36;100772.66;;;-3.09;94.58
70544;BME280;58097;48.364;-1.224;2024-01-11T03:40:03;100767.44;;;-3.14;94.97
70544;BME280;58097;48.364;-1.224;2024-01-11T03:42:28;100772.78;;;-3.13;94.88
70544;BME280;58097;48.364;-1.224;2024-01-11T03:44:54;100768.50;;;-3.20;95.15
70544;BME280;58097;48.364;-1.224;2024-01-11T03:47:19;100766.91;;;-3.25;95.62
70544;BME280;58097;48.364;-1.224;2024-01-11T03:49:45;100762.53;;;-3.29;95.80
70544;BME280;58097;48.364;-1.224;2024-01-11T03:52:10;100763.09;;;-3.20;95.93
70544;BME280;58097;48.364;-1.224;2024-01-11T03:54:35;100762.31;;;-3.23;95.66
70544;BME280;58097;48.364;-1.224;2024-01-11T03:57:01;100759.72;;;-3.26;96.06
70544;BME280;58097;48.364;-1.224;2024-01-11T03:59:26;100765.03;;;-3.23;95.93
70544;BME280;58097;48.364;-1.224;2024-01-11T04:01:52;100768.66;;;-3.24;96.15
70544;BME280;58097;48.364;-1.224;2024-01-11T04:04:17;100763.09;;;-3.20;95.69
70544;BME280;58097;48.364;-1.224;2024-01-11T04:06:44;100774.78;;;-3.19;95.71
70544;BME280;58097;48.364;-1.224;2024-01-11T04:09:10;100773.72;;;-3.14;95.63
70544;BME280;58097;48.364;-1.224;2024-01-11T04:11:35;100766.38;;;-3.10;95.62
70544;BME280;58097;48.364;-1.224;2024-01-11T04:14:00;100777.13;;;-3.08;95.45
70544;BME280;58097;48.364;-1.224;2024-01-11T04:16:26;100773.44;;;-3.06;95.16
70544;BME280;58097;48.364;-1.224;2024-01-11T04:18:51;100776.03;;;-3.03;95.09
70544;BME280;58097;48.364;-1.224;2024-01-11T04:21:27;100769.56;;;-2.99;94.90
70544;BME280;58097;48.364;-1.224;2024-01-11T04:23:56;100767.75;;;-2.98;94.90
70544;BME280;58097;48.364;-1.224;2024-01-11T04:26:22;100778.78;;;-3.04;95.27
70544;BME280;58097;48.364;-1.224;2024-01-11T04:28:48;100787.13;;;-3.10;95.57
70544;BME280;58097;48.364;-1.224;2024-01-11T04:31:14;100791.53;;;-3.08;95.58
70544;BME280;58097;48.364;-1.224;2024-01-11T04:33:41;100793.47;;;-3.12;95.61
70544;BME280;58097;48.364;-1.224;2024-01-11T04:36:08;100792.41;;;-3.07;95.91
70544;BME280;58097;48.364;-1.224;2024-01-11T04:38:33;100789.56;;;-3.03;96.23
70544;BME280;58097;48.364;-1.224;2024-01-11T04:40:59;100796.59;;;-2.99;96.12
70544;BME280;58097;48.364;-1.224;2024-01-11T04:43:24;100796.59;;;-2.99;95.84
70544;BME280;58097;48.364;-1.224;2024-01-11T04:45:49;100800.03;;;-2.94;95.84
70544;BME280;58097;48.364;-1.224;2024-01-11T04:48:15;100808.88;;;-2.89;95.84
70544;BME280;58097;48.364;-1.224;2024-01-11T04:50:40;100799.78;;;-2.86;95.68
70544;BME280;58097;48.364;-1.224;2024-01-11T04:53:05;100800.50;;;-2.81;95.67
70544;BME280;58097;48.364;-1.224;2024-01-11T04:55:31;100800.50;;;-2.81;95.83
70544;BME280;58097;48.364;-1.224;2024-01-11T04:57:56;100808.50;;;-2.78;95.56
70544;BME280;58097;48.364;-1.224;2024-01-11T05:00:21;100814.66;;;-2.74;95.58
70544;BME280;58097;48.364;-1.224;2024-01-11T05:02:47;100811.03;;;-2.73;95.49
70544;BME280;58097;48.364;-1.224;2024-01-11T05:05:12;100811.91;;;-2.73;95.27
70544;BME280;58097;48.364;-1.224;2024-01-11T05:07:38;100809.97;;;-2.69;95.40
70544;BME280;58097;48.364;-1.224;2024-01-11T05:10:03;100815.31;;;-2.68;95.42
70544;BME280;58097;48.364;-1.224;2024-01-11T05:12:29;100807.03;;;-2.63;95.30
70544;BME280;58097;48.364;-1.224;2024-01-11T05:14:54;100818.66;;;-2.60;95.45
70544;BME280;58097;48.364;-1.224;2024-01-11T05:17:20;100809.47;;;-2.56;95.41
70544;BME280;58097;48.364;-1.224;2024-01-11T05:19:45;100809.38;;;-2.53;95.51
70544;BME280;58097;48.364;-1.224;2024-01-11T05:22:10;100811.13;;;-2.52;95.12
70544;BME280;58097;48.364;-1.224;2024-01-11T05:24:35;100801.88;;;-2.46;95.40
70544;BME280;58097;48.364;-1.224;2024-01-11T05:27:01;100810.72;;;-2.41;95.38
70544;BME280;58097;48.364;-1.224;2024-01-11T05:29:26;100806.19;;;-2.40;95.08
70544;BME280;58097;48.364;-1.224;2024-01-11T05:31:51;100805.94;;;-2.34;95.04
70544;BME280;58097;48.364;-1.224;2024-01-11T05:34:17;100805.06;;;-2.35;95.36
70544;BME280;58097;48.364;-1.224;2024-01-11T05:36:42;100810.41;;;-2.33;95.20
70544;BME280;58097;48.364;-1.224;2024-01-11T05:39:07;100819.41;;;-2.31;95.32
70544;BME280;58097;48.364;-1.224;2024-01-11T05:41:33;100819.22;;;-2.27;95.30
70544;BME280;58097;48.364;-1.224;2024-01-11T05:43:58;100822.81;;;-2.26;95.11
70544;BME280;58097;48.364;-1.224;2024-01-11T05:46:23;100826.97;;;-2.17;94.67
70544;BME280;58097;48.364;-1.224;2024-01-11T05:48:49;100839.34;;;-2.10;94.79
70544;BME280;58097;48.364;-1.224;2024-01-11T05:51:14;100839.41;;;-2.12;94.73
70544;BME280;58097;48.364;-1.224;2024-01-11T05:53:40;100846.63;;;-2.12;94.74
70544;BME280;58097;48.364;-1.224;2024-01-11T05:56:09;100836.75;;;-2.13;94.59
70544;BME280;58097;48.364;-1.224;2024-01-11T05:58:35;100830.38;;;-2.12;94.45
70544;BME280;58097;48.364;-1.224;2024-01-11T06:01:02;100840.03;;;-2.05;94.15
70544;BME280;58097;48.364;-1.224;2024-01-11T06:03:27;100833.16;;;-2.14;94.34
70544;BME280;58097;48.364;-1.224;2024-01-11T06:05:53;100844.22;;;-2.20;94.56
70544;BME280;58097;48.364;-1.224;2024-01-11T06:08:18;100841.63;;;-2.23;95.10
70544;BME280;58097;48.364;-1.224;2024-01-11T06:10:44;100835.34;;;-2.24;95.51
70544;BME280;58097;48.364;-1.224;2024-01-11T06:13:09;100839.50;;;-2.15;95.47
70544;BME280;58097;48.364;-1.224;2024-01-11T06:15:35;100834.97;;;-2.14;95.69
70544;BME280;58097;48.364;-1.224;2024-01-11T06:18:00;100835.94;;;-2.15;96.37
70544;BME280;58097;48.364;-1.224;2024-01-11T06:20:25;100834.94;;;-2.13;96.37
70544;BME280;58097;48.364;-1.224;2024-01-11T06:22:51;100845.56;;;-2.08;96.84
70544;BME280;58097;48.364;-1.224;2024-01-11T06:25:17;100852.69;;;-2.06;97.16
70544;BME280;58097;48.364;-1.224;2024-01-11T06:27:43;100857.34;;;-2.09;97.50
70544;BME280;58097;48.364;-1.224;2024-01-11T06:30:09;100857.34;;;-2.09;98.26
70544;BME280;58097;48.364;-1.224;2024-01-11T06:32:34;100858.16;;;-2.07;98.83
70544;BME280;58097;48.364;-1.224;2024-01-11T06:35:00;100854.47;;;-2.05;100.00
70544;BME280;58097;48.364;-1.224;2024-01-11T06:37:27;100858.66;;;-1.96;100.00
70544;BME280;58097;48.364;-1.224;2024-01-11T06:39:52;100849.28;;;-1.88;100.00
70544;BME280;58097;48.364;-1.224;2024-01-11T06:42:18;100855.16;;;-1.76;100.00
70544;BME280;58097;48.364;-1.224;2024-01-11T06:44:43;100857.72;;;-1.72;100.00
70544;BME280;58097;48.364;-1.224;2024-01-11T06:47:08;100851.09;;;-1.65;100.00
70544;BME280;58097;48.364;-1.224;2024-01-11T06:49:34;100857.16;;;-1.58;100.00
70544;BME280;58097;48.364;-1.224;2024-01-11T06:51:59;100853.34;;;-1.54;100.00
70544;BME280;58097;48.364;-1.224;2024-01-11T06:54:24;100853.88;;;-1.44;100.00
70544;BME280;58097;48.364;-1.224;2024-01-11T06:56:50;100857.34;;;-1.41;100.00
70544;BME280;58097;48.364;-1.224;2024-01-11T06:59:15;100855.28;;;-1.34;100.00
70544;BME280;58097;48.364;-1.224;2024-01-11T07:01:41;100850.34;;;-1.25;100.00
70544;BME280;58097;48.364;-1.224;2024-01-11T07:04:06;100854.63;;;-1.19;100.00
70544;BME280;58097;48.364;-1.224;2024-01-11T07:06:31;100850.00;;;-1.17;100.00
70544;BME280;58097;48.364;-1.224;2024-01-11T07:08:57;100850.88;;;-1.16;100.00
70544;BME280;58097;48.364;-1.224;2024-01-11T07:11:23;100848.06;;;-1.13;100.00
70544;BME280;58097;48.364;-1.224;2024-01-11T07:13:48;100863.34;;;-1.11;100.00
70544;BME280;58097;48.364;-1.224;2024-01-11T07:16:13;100858.72;;;-1.09;100.00
70544;BME280;58097;48.364;-1.224;2024-01-11T07:18:39;100863.97;;;-1.04;100.00
70544;BME280;58097;48.364;-1.224;2024-01-11T07:21:04;100864.84;;;-1.04;100.00
70544;BME280;58097;48.364;-1.224;2024-01-11T07:23:30;100883.75;;;-1.02;100.00
70544;BME280;58097;48.364;-1.224;2024-01-11T07:25:55;100882.06;;;-1.05;100.00
70544;BME280;58097;48.364;-1.224;2024-01-11T07:28:20;100896.44;;;-1.03;100.00
70544;BME280;58097;48.364;-1.224;2024-01-11T07:30:53;100887.69;;;-1.09;100.00
70544;BME280;58097;48.364;-1.224;2024-01-11T07:33:20;100895.75;;;-1.08;100.00
70544;BME280;58097;48.364;-1.224;2024-01-11T07:35:46;100901.31;;;-1.11;100.00
70544;BME280;58097;48.364;-1.224;2024-01-11T07:38:11;100897.84;;;-1.14;100.00
70544;BME280;58097;48.364;-1.224;2024-01-11T07:40:37;100899.69;;;-1.15;100.00
70544;BME280;58097;48.364;-1.224;2024-01-11T07:43:02;100901.59;;;-1.18;100.00
70544;BME280;58097;48.364;-1.224;2024-01-11T07:45:29;100910.63;;;-1.18;99.95
70544;BME280;58097;48.364;-1.224;2024-01-11T07:47:55;100905.28;;;-1.19;99.67
70544;BME280;58097;48.364;-1.224;2024-01-11T07:50:20;100911.91;;;-1.27;99.79
70544;BME280;58097;48.364;-1.224;2024-01-11T07:52:45;100922.00;;;-1.30;99.30
70544;BME280;58097;48.364;-1.224;2024-01-11T07:55:11;100923.94;;;-1.34;98.86
70544;BME280;58097;48.364;-1.224;2024-01-11T07:57:38;100926.66;;;-1.34;98.63
70544;BME280;58097;48.364;-1.224;2024-01-11T08:00:07;100932.97;;;-1.33;98.53
70544;BME280;58097;48.364;-1.224;2024-01-11T08:02:33;100941.09;;;-1.33;98.09
70544;BME280;58097;48.364;-1.224;2024-01-11T08:04:58;100937.56;;;-1.35;97.73
70544;BME280;58097;48.364;-1.224;2024-01-11T08:07:28;100942.22;;;-1.39;97.67
70544;BME280;58097;48.364;-1.224;2024-01-11T08:09:54;100951.25;;;-1.38;97.51
70544;BME280;58097;48.364;-1.224;2024-01-11T08:12:19;100950.44;;;-1.40;97.14
70544;BME280;58097;48.364;-1.224;2024-01-11T08:14:44;100953.97;;;-1.38;97.34
70544;BME280;58097;48.364;-1.224;2024-01-11T08:17:12;100952.88;;;-1.34;97.22
70544;BME280;58097;48.364;-1.224;2024-01-11T08:19:39;100962.78;;;-1.33;96.88
70544;BME280;58097;48.364;-1.224;2024-01-11T08:22:05;100969.03;;;-1.31;97.01
70544;BME280;58097;48.364;-1.224;2024-01-11T08:24:30;100975.28;;;-1.29;96.78
70544;BME280;58097;48.364;-1.224;2024-01-11T08:26:56;100981.47;;;-1.26;96.85
70544;BME280;58097;48.364;-1.224;2024-01-11T08:29:22;100995.97;;;-1.27;96.17
70544;BME280;58097;48.364;-1.224;2024-01-11T08:31:48;100995.72;;;-1.20;95.82
70544;BME280;58097;48.364;-1.224;2024-01-11T08:34:13;101001.97;;;-1.18;96.01
70544;BME280;58097;48.364;-1.224;2024-01-11T08:36:39;101012.66;;;-1.14;95.46
70544;BME280;58097;48.364;-1.224;2024-01-11T08:39:07;101006.16;;;-1.10;95.56
70544;BME280;58097;48.364;-1.224;2024-01-11T08:41:36;101006.03;;;-1.07;95.71
70544;BME280;58097;48.364;-1.224;2024-01-11T08:44:03;101007.69;;;-1.03;95.47
70544;BME280;58097;48.364;-1.224;2024-01-11T08:46:30;101013.00;;;-1.00;94.75
70544;BME280;58097;48.364;-1.224;2024-01-11T08:48:57;101011.78;;;-0.93;94.81
70544;BME280;58097;48.364;-1.224;2024-01-11T08:51:22;101007.91;;;-0.85;94.39
70544;BME280;58097;48.364;-1.224;2024-01-11T08:53:47;101012.38;;;-0.84;92.72
70544;BME280;58097;48.364;-1.224;2024-01-11T08:56:13;101030.19;;;-0.77;93.02
70544;BME280;58097;48.364;-1.224;2024-01-11T08:58:42;101026.66;;;-0.79;92.14
70544;BME280;58097;48.364;-1.224;2024-01-11T09:01:07;101029.34;;;-0.79;92.06
70544;BME280;58097;48.364;-1.224;2024-01-11T09:03:34;101029.16;;;-0.75;92.06
70544;BME280;58097;48.364;-1.224;2024-01-11T09:06:00;101022.97;;;-0.78;91.82
70544;BME280;58097;48.364;-1.224;2024-01-11T09:08:26;101033.84;;;-0.78;91.60
70544;BME280;58097;48.364;-1.224;2024-01-11T09:10:51;101042.88;;;-0.78;91.75
70544;BME280;58097;48.364;-1.224;2024-01-11T09:13:18;101047.22;;;-0.74;91.73
70544;BME280;58097;48.364;-1.224;2024-01-11T09:15:43;101042.69;;;-0.73;91.31
70544;BME280;58097;48.364;-1.224;2024-01-11T09:18:08;101041.59;;;-0.69;91.62
70544;BME280;58097;48.364;-1.224;2024-01-11T09:20:35;101044.19;;;-0.66;90.89
70544;BME280;58097;48.364;-1.224;2024-01-11T09:23:00;101047.59;;;-0.61;90.95
70544;BME280;58097;48.364;-1.224;2024-01-11T09:25:29;101052.66;;;-0.52;91.76
70544;BME280;58097;48.364;-1.224;2024-01-11T09:27:54;101051.47;;;-0.45;91.06
70544;BME280;58097;48.364;-1.224;2024-01-11T09:30:19;101043.94;;;-0.38;90.51
70544;BME280;58097;48.364;-1.224;2024-01-11T09:32:45;101049.16;;;-0.34;90.35
70544;BME280;58097;48.364;-1.224;2024-01-11T09:35:10;101057.06;;;-0.27;90.41
70544;BME280;58097;48.364;-1.224;2024-01-11T09:37:36;101056.06;;;-0.25;89.71
70544;BME280;58097;48.364;-1.224;2024-01-11T09:40:01;101043.03;;;-0.17;90.38
70544;BME280;58097;48.364;-1.224;2024-01-11T09:42:27;101058.91;;;-0.08;90.54
70544;BME280;58097;48.364;-1.224;2024-01-11T09:44:54;101067.81;;;-0.04;90.12
70544;BME280;58097;48.364;-1.224;2024-01-11T09:47:21;101072.31;;;-0.03;89.87
70544;BME280;58097;48.364;-1.224;2024-01-11T09:49:48;101066.63;;;0.03;89.75
70544;BME280;58097;48.364;-1.224;2024-01-11T09:52:16;101080.03;;;0.08;89.63
70544;BME280;58097;48.364;-1.224;2024-01-11T09:54:44;101084.09;;;0.18;89.95
70544;BME280;58097;48.364;-1.224;2024-01-11T09:57:10;101068.22;;;0.29;89.97
70544;BME280;58097;48.364;-1.224;2024-01-11T09:59:36;101082.41;;;0.36;89.19
70544;BME280;58097;48.364;-1.224;2024-01-11T10:02:02;101085.53;;;0.47;88.78
70544;BME280;58097;48.364;-1.224;2024-01-11T10:04:28;101091.97;;;0.65;89.27
70544;BME280;58097;48.364;-1.224;2024-01-11T10:06:55;101081.34;;;0.79;88.44
70544;BME280;58097;48.364;-1.224;2024-01-11T10:09:21;101086.47;;;0.85;87.71
70544;BME280;58097;48.364;-1.224;2024-01-11T10:11:48;101093.88;;;1.02;88.64
70544;BME280;58097;48.364;-1.224;2024-01-11T10:14:14;101100.47;;;1.16;87.24
70544;BME280;58097;48.364;-1.224;2024-01-11T10:16:41;101103.00;;;1.38;88.13
70544;BME280;58097;48.364;-1.224;2024-01-11T10:19:07;101121.66;;;1.47;86.68
70544;BME280;58097;48.364;-1.224;2024-01-11T10:21:37;101122.31;;;1.52;85.64
70544;BME280;58097;48.364;-1.224;2024-01-11T10:24:03;101116.97;;;1.68;85.34
70544;BME280;58097;48.364;-1.224;2024-01-11T10:26:30;101132.50;;;1.85;85.63
70544;BME280;58097;48.364;-1.224;2024-01-11T10:28:59;101133.50;;;2.01;86.08
70544;BME280;58097;48.364;-1.224;2024-01-11T10:31:28;101136.50;;;2.14;84.91
70544;BME280;58097;48.364;-1.224;2024-01-11T10:33:53;101132.31;;;2.24;83.82
70544;BME280;58097;48.364;-1.224;2024-01-11T10:36:19;101130.25;;;2.46;85.86
70544;BME280;58097;48.364;-1.224;2024-01-11T10:38:46;101124.22;;;2.57;85.16
70544;BME280;58097;48.364;-1.224;2024-01-11T10:41:12;101123.19;;;2.77;85.81
70544;BME280;58097;48.364;-1.224;2024-01-11T10:43:43;101125.38;;;2.70;81.07
70544;BME280;58097;48.364;-1.224;2024-01-11T10:46:10;101117.19;;;2.70;81.40
70544;BME280;58097;48.364;-1.224;2024-01-11T10:48:42;101127.91;;;2.91;81.58
70544;BME280;58097;48.364;-1.224;2024-01-11T10:51:12;101125.00;;;2.94;81.90
70544;BME280;58097;48.364;-1.224;2024-01-11T10:53:43;101118.06;;;3.04;80.51
70544;BME280;58097;48.364;-1.224;2024-01-11T10:56:11;101115.34;;;3.04;79.54
70544;BME280;58097;48.364;-1.224;2024-01-11T10:58:40;101127.59;;;3.13;80.41
70544;BME280;58097;48.364;-1.224;2024-01-11T11:01:07;101129.59;;;3.26;81.43
70544;BME280;58097;48.364;-1.224;2024-01-11T11:03:34;101120.91;;;3.51;82.30
70544;BME280;58097;48.364;-1.224;2024-01-11T11:06:01;101116.81;;;3.74;83.35
70544;BME280;58097;48.364;-1.224;2024-01-11T11:08:26;101112.78;;;3.81;79.58
70544;BME280;58097;48.364;-1.224;2024-01-11T11:10:56;101109.75;;;4.01;83.19
70544;BME280;58097;48.364;-1.224;2024-01-11T11:13:25;101119.91;;;3.99;78.40
70544;BME280;58097;48.364;-1.224;2024-01-11T11:15:52;101127.31;;;4.13;80.31
70544;BME280;58097;48.364;-1.224;2024-01-11T11:18:18;101124.22;;;4.19;79.16
70544;BME280;58097;48.364;-1.224;2024-01-11T11:20:45;101123.84;;;4.25;79.77
70544;BME280;58097;48.364;-1.224;2024-01-11T11:23:12;101121.94;;;4.12;76.03
70544;BME280;58097;48.364;-1.224;2024-01-11T11:25:45;101120.50;;;4.04;75.26
70544;BME280;58097;48.364;-1.224;2024-01-11T11:28:15;101119.94;;;3.84;74.03
70544;BME280;58097;48.364;-1.224;2024-01-11T11:30:42;101120.09;;;3.96;76.64
70544;BME280;58097;48.364;-1.224;2024-01-11T11:33:16;101110.03;;;3.97;74.94
70544;BME280;58097;48.364;-1.224;2024-01-11T11:35:42;101112.31;;;4.04;78.60
70544;BME280;58097;48.364;-1.224;2024-01-11T11:38:08;101106.81;;;4.20;77.25
70544;BME280;58097;48.364;-1.224;2024-01-11T11:40:36;101100.09;;;4.26;78.58
70544;BME280;58097;48.364;-1.224;2024-01-11T11:43:05;101100.06;;;4.42;78.37
70544;BME280;58097;48.364;-1.224;2024-01-11T11:45:30;101108.69;;;4.50;78.71
70544;BME280;58097;48.364;-1.224;2024-01-11T11:47:57;101104.13;;;4.64;79.55
70544;BME280;58097;48.364;-1.224;2024-01-11T11:50:22;101122.13;;;4.69;78.02
70544;BME280;58097;48.364;-1.224;2024-01-11T11:52:56;101133.78;;;4.72;77.19
70544;BME280;58097;48.364;-1.224;2024-01-11T11:55:25;101130.78;;;4.31;72.30
70544;BME280;58097;48.364;-1.224;2024-01-11T11:57:52;101140.13;;;3.97;72.82
70544;BME280;58097;48.364;-1.224;2024-01-11T12:00:19;101139.13;;;3.98;73.11
70544;BME280;58097;48.364;-1.224;2024-01-11T12:02:46;101143.38;;;4.03;74.91
70544;BME280;58097;48.364;-1.224;2024-01-11T12:05:12;101146.81;;;3.91;74.55
70544;BME280;58097;48.364;-1.224;2024-01-11T12:07:38;101134.19;;;4.04;75.63
70544;BME280;58097;48.364;-1.224;2024-01-11T12:10:04;101139.84;;;4.17;76.65
70544;BME280;58097;48.364;-1.224;2024-01-11T12:12:30;101131.25;;;4.39;78.72
70544;BME280;58097;48.364;-1.224;2024-01-11T12:14:57;101128.13;;;4.45;75.74
70544;BME280;58097;48.364;-1.224;2024-01-11T12:17:23;101130.00;;;4.29;73.03
70544;BME280;58097;48.364;-1.224;2024-01-11T12:19:51;101136.03;;;4.20;74.87
70544;BME280;58097;48.364;-1.224;2024-01-11T12:22:16;101125.94;;;4.36;76.86
70544;BME280;58097;48.364;-1.224;2024-01-11T12:24:42;101121.59;;;4.32;74.42
70544;BME280;58097;48.364;-1.224;2024-01-11T12:27:08;101133.00;;;4.40;76.46
70544;BME280;58097;48.364;-1.224;2024-01-11T12:29:33;101130.97;;;4.44;75.15
70544;BME280;58097;48.364;-1.224;2024-01-11T12:31:59;101127.16;;;4.46;75.19
70544;BME280;58097;48.364;-1.224;2024-01-11T12:34:25;101120.97;;;4.73;77.44